Aérodrome :
LOGIN :

S'inscrire | Disclaimer

   EN    FR    IT 

 










Légende :    VFR   VFR Marginal   IFR   IFR Intensif   IFR Très Intensif
Visi : 
Plafond : 
>= 8 km
>= 3000ft
5 à 8 km
1000 à 3000 ft
1500m à 5 km
500 à 1000 ft
800 à 1500m
200 à 500 ft
< 800m
< 200 ft
Symboles :   Orages  Brouillard  Fortes neiges  Fortes précipitations  Vent > 20 kt
SIGMETs :   Divers  Orages  Givrage  Turbulence  Onde Orograph.  Cendres Volcan.






- Altitude de l'aérodrome : 1036 ft
- Code IATA : ERF


EDDE - Erfurt

DERNIER METAR :
  • 120050Z 19008KT 9999 BKN021 03/M00 Q1005

METARs EXPIRÉS :
  • 120020Z 18008KT 9999 FEW024 02/M00 Q1005
  • 112350Z 17006KT 9999 BKN022 02/M00 Q1005
  • 112320Z 16007KT CAVOK 02/M01 Q1005
  • 112250Z 17009KT CAVOK 02/M01 Q1005
  • 112220Z 18011KT CAVOK 02/M01 Q1005

TAF TAF EDDE
Valide du 12 à 00h jusqu'au 13 à 00h UTC


112300Z 1200/1224 21010KT 9999 FEW030
BECMG 1208/1210 22015G25KT
BECMG 1213/1215 21009KT



MET'MAP, la Météo Aéronautique d'un coup d'oeil ! - Copyright ORBIFLY Décembre 2007 - Disclaimer

ORBIFLY MET'MAP TEAM :

Programmation & Développement : Alexandra Zaïnal
Conception & Développement : Baudouin d'Aumeries
Co-Programmation & Développement : Marc-Olivier Méhu
Soutien technique & logistique : Manuel Goepfert

Contact : metmap@orbifly.com




SOURCES & CREDITS :

   NOAA